Time;durP1;ratioP1;P1;durP2;ratioP2;P2;SDS_P1;SDS_P2;PMS_P1;PMS_P2;Temp;Humidity;BMP_temperature;BMP_pressure;BME280_temperature;BME280_humidity;BME280_pressure;Samples;Min_cycle;Max_cycle;Signal;HPM_P1;HPM_P2
2022/05/25 00:01:04;;;;;;;;;2.00;1.00;;;;;15.85;53.44;101186.28;5061057;28;55503;-65
2022/05/25 00:03:32;;;;;;;;;2.33;2.33;;;;;15.83;53.62;101182.81;5065713;28;45511;-64
2022/05/25 00:05:58;;;;;;;;;2.00;2.00;;;;;15.83;53.47;101184.66;5067815;28;46425;-64
2022/05/25 00:08:24;;;;;;;;;5.00;3.33;;;;;15.81;54.03;101184.75;5064827;28;45564;-65
2022/05/25 00:10:49;;;;;;;;;4.00;2.00;;;;;15.81;53.71;101176.72;5060404;28;45321;-64
2022/05/25 00:13:15;;;;;;;;;2.67;1.67;;;;;15.78;54.00;101174.19;5058014;28;45317;-64
2022/05/25 00:15:40;;;;;;;;;2.00;2.00;;;;;15.77;54.22;101174.28;5057856;28;46006;-64
2022/05/25 00:18:06;;;;;;;;;3.67;3.00;;;;;15.75;54.01;101177.09;5061954;28;58177;-64
2022/05/25 00:20:32;;;;;;;;;3.00;3.00;;;;;15.75;54.01;101174.41;5057247;28;62374;-64
2022/05/25 00:22:57;;;;;;;;;3.33;2.67;;;;;15.72;54.65;101174.59;5057861;28;45341;-64
2022/05/25 00:25:29;;;;;;;;;2.00;2.00;;;;;15.70;54.09;101173.84;5057298;28;45924;-64
2022/05/25 00:27:55;;;;;;;;;5.00;1.67;;;;;15.69;54.67;101182.84;5056884;28;45407;-64
2022/05/25 00:30:21;;;;;;;;;3.00;3.00;;;;;15.67;54.91;101176.69;5056165;28;45438;-64
2022/05/25 00:32:47;;;;;;;;;5.00;2.33;;;;;15.65;54.36;101178.66;5061926;28;45229;-64
2022/05/25 00:35:15;;;;;;;;;3.00;2.00;;;;;15.63;54.75;101184.13;5056824;28;46250;-64
2022/05/25 00:37:40;;;;;;;;;1.67;1.67;;;;;15.61;54.46;101180.66;5057800;28;45355;-64
2022/05/25 00:40:09;;;;;;;;;4.00;3.00;;;;;15.60;54.50;101183.44;5058282;28;45449;-64
2022/05/25 00:42:37;;;;;;;;;2.67;2.67;;;;;15.58;54.74;101185.34;5060254;28;45371;-64
2022/05/25 00:45:05;;;;;;;;;3.00;3.00;;;;;15.56;54.88;101188.13;5057815;28;46225;-64
2022/05/25 00:47:31;;;;;;;;;4.00;4.00;;;;;15.53;54.97;101194.56;5043189;28;45516;-64
2022/05/25 00:49:56;;;;;;;;;4.67;4.67;;;;;15.50;55.00;101193.88;5055158;28;45433;-64
2022/05/25 00:52:22;;;;;;;;;6.33;5.33;;;;;15.45;55.28;101202.25;5057137;28;45578;-64
2022/05/25 00:54:53;;;;;;;;;5.33;5.33;;;;;15.42;55.33;101197.06;5060556;28;45252;-64
2022/05/25 00:57:23;;;;;;;;;7.00;5.00;;;;;15.36;55.18;101198.31;5061300;28;45335;-64
2022/05/25 01:00:17;;;;;;;;;7.33;4.67;;;;;15.33;55.05;101200.34;5068630;28;45487;-64
2022/05/25 01:02:46;;;;;;;;;2.67;2.67;;;;;15.30;55.27;101201.38;5061265;28;45460;-63
2022/05/25 01:05:13;;;;;;;;;6.00;2.33;;;;;15.29;55.37;101205.06;5061227;28;45633;-63
2022/05/25 01:08:14;;;;;;;;;5.33;3.67;;;;;15.28;55.57;101199.78;5039936;28;45384;-63
2022/05/25 01:11:04;;;;;;;;;3.00;3.00;;;;;15.26;55.39;101207.91;5030935;28;45233;-64
2022/05/25 01:13:42;;;;;;;;;4.33;3.00;;;;;15.25;55.41;101208.84;5033183;28;45377;-64
2022/05/25 01:16:32;;;;;;;;;7.00;4.67;;;;;15.24;55.70;101209.84;5041474;28;46117;-63
2022/05/25 01:19:03;;;;;;;;;4.33;3.00;;;;;15.22;55.55;101220.63;5046019;28;45530;-63
2022/05/25 01:21:51;;;;;;;;;3.00;3.00;;;;;15.20;55.91;101219.00;5044140;28;45588;-64
2022/05/25 01:24:25;;;;;;;;;7.33;5.33;;;;;15.20;55.87;101216.31;5041482;28;45305;-64
2022/05/25 01:26:53;;;;;;;;;3.00;3.00;;;;;15.18;55.60;101218.25;5042993;28;46246;-64
2022/05/25 01:29:22;;;;;;;;;4.00;4.00;;;;;15.16;55.76;101222.84;5038444;28;45691;-64
2022/05/25 01:31:59;;;;;;;;;2.67;2.67;;;;;15.15;56.07;101226.50;5056427;28;45367;-64
2022/05/25 01:34:35;;;;;;;;;3.00;3.00;;;;;15.12;56.05;101221.31;5043906;28;45258;-63
2022/05/25 01:37:07;;;;;;;;;2.00;2.00;;;;;15.08;56.50;101223.31;5033457;28;45362;-63
2022/05/25 01:39:38;;;;;;;;;3.00;3.00;;;;;15.02;56.48;101232.59;5044028;28;45280;-63
2022/05/25 01:42:14;;;;;;;;;3.33;3.00;;;;;14.98;56.13;101239.13;5062992;28;45337;-63
2022/05/25 01:44:46;;;;;;;;;2.00;2.00;;;;;14.99;56.43;101234.59;5033849;28;45637;-63
2022/05/25 01:47:11;;;;;;;;;3.00;3.00;;;;;14.97;56.78;101241.91;5058420;28;45415;-63
2022/05/25 01:49:48;;;;;;;;;2.00;2.00;;;;;14.96;56.40;101237.50;5041669;28;45411;-63
2022/05/25 01:52:16;;;;;;;;;3.00;3.00;;;;;14.96;56.74;101235.66;5062233;28;45507;-63
2022/05/25 01:54:51;;;;;;;;;3.67;2.00;;;;;14.94;56.48;101240.25;5032659;28;45576;-63
2022/05/25 01:57:18;;;;;;;;;2.33;2.33;;;;;14.93;56.73;101237.66;5035741;28;45935;-65
2022/05/25 01:59:43;;;;;;;;;2.00;2.00;;;;;14.92;56.63;101238.63;5041406;28;45442;-63
2022/05/25 02:04:55;;;;;;;;;4.00;2.00;;;;;14.88;57.28;101243.31;5047062;28;45225;-64
2022/05/25 02:07:42;;;;;;;;;3.00;3.00;;;;;14.84;57.16;101250.66;5042119;28;45331;-63
2022/05/25 02:10:24;;;;;;;;;2.67;2.67;;;;;14.82;57.27;101239.19;5069669;28;45334;-63
2022/05/25 02:12:53;;;;;;;;;2.00;2.00;;;;;14.78;57.10;101237.63;5043111;28;45405;-63
2022/05/25 02:15:48;;;;;;;;;3.67;2.00;;;;;14.77;57.32;101253.81;5060654;28;45477;-63
2022/05/25 02:18:22;;;;;;;;;2.33;2.33;;;;;14.74;57.38;101245.97;5045006;28;46204;-63
2022/05/25 02:20:55;;;;;;;;;2.00;2.00;;;;;14.75;57.72;101251.22;5061025;28;45413;-63
2022/05/25 02:23:53;;;;;;;;;2.67;2.67;;;;;14.73;58.19;101258.47;5045437;28;45777;-62
2022/05/25 02:26:29;;;;;;;;;2.00;2.00;;;;;14.69;57.78;101247.13;5041839;28;45582;-62
2022/05/25 02:29:17;;;;;;;;;2.67;1.00;;;;;14.65;57.85;101248.25;5046569;28;45708;-63
2022/05/25 02:31:47;;;;;;;;;3.00;2.00;;;;;14.61;57.80;101249.34;5038227;28;45432;-62
2022/05/25 02:34:16;;;;;;;;;1.00;1.00;;;;;14.58;57.97;101254.03;5044777;28;45859;-63
2022/05/25 02:36:42;;;;;;;;;2.00;2.00;;;;;14.59;57.99;101258.41;5039082;28;45446;-63
2022/05/25 02:39:09;;;;;;;;;2.33;2.33;;;;;14.59;57.71;101261.97;5045011;28;46725;-63
2022/05/25 02:41:42;;;;;;;;;2.33;1.67;;;;;14.59;58.04;101261.97;5036595;28;45293;-62
2022/05/25 02:44:08;;;;;;;;;2.00;2.00;;;;;14.56;58.11;101265.69;5059713;28;45276;-61
2022/05/25 02:46:33;;;;;;;;;3.00;3.00;;;;;14.53;58.78;101268.53;5063711;28;61100;-62
2022/05/25 02:48:59;;;;;;;;;4.00;4.00;;;;;14.47;58.25;101273.38;5064073;28;45321;-62
2022/05/25 02:51:24;;;;;;;;;3.00;3.00;;;;;14.44;58.15;101276.25;5061120;28;53099;-62
2022/05/25 02:53:50;;;;;;;;;2.33;2.33;;;;;14.41;58.47;101282.66;5059126;28;45244;-62
2022/05/25 02:56:16;;;;;;;;;2.67;2.67;;;;;14.39;58.40;101280.06;5059290;28;45695;-62
2022/05/25 02:58:41;;;;;;;;;3.67;3.00;;;;;14.38;58.60;101281.00;5060455;28;45303;-63
2022/05/25 03:01:06;;;;;;;;;4.00;4.00;;;;;14.37;58.79;101281.13;5060573;28;63525;-63
2022/05/25 03:03:33;;;;;;;;;2.00;2.00;;;;;14.36;58.80;101282.06;5059178;28;45442;-63
2022/05/25 03:05:58;;;;;;;;;3.33;3.00;;;;;14.36;58.65;101288.25;5058166;28;45419;-62
2022/05/25 03:08:26;;;;;;;;;2.00;2.00;;;;;14.36;58.74;101290.09;5058455;28;45816;-63
2022/05/25 03:10:51;;;;;;;;;3.00;3.00;;;;;14.35;58.81;101299.94;5058108;28;45434;-64
2022/05/25 03:13:16;;;;;;;;;2.00;2.00;;;;;14.34;58.86;101300.88;5057897;28;61824;-63
2022/05/25 03:15:42;;;;;;;;;2.00;2.00;;;;;14.33;58.96;101293.81;5057800;28;58512;-63
2022/05/25 03:18:07;;;;;;;;;2.33;2.33;;;;;14.34;59.08;101294.66;5067626;28;45968;-64
2022/05/25 03:20:33;;;;;;;;;5.67;2.00;;;;;14.33;59.02;101299.16;5060698;28;58554;-62
2022/05/25 03:22:58;;;;;;;;;3.33;2.67;;;;;14.33;59.33;101299.16;5057335;28;45222;-63
2022/05/25 03:25:23;;;;;;;;;3.00;3.00;;;;;14.31;59.45;101309.06;5058519;28;60802;-64
2022/05/25 03:27:49;;;;;;;;;2.00;2.00;;;;;14.30;59.27;101309.16;5059651;28;46088;-64
2022/05/25 03:30:16;;;;;;;;;4.00;4.00;;;;;14.27;59.67;101310.19;5060009;28;45277;-62
2022/05/25 03:32:41;;;;;;;;;1.00;1.00;;;;;14.24;59.41;101323.75;5057880;28;45595;-63
2022/05/25 03:35:09;;;;;;;;;3.33;3.33;;;;;14.22;59.71;101323.88;5057959;28;62063;-63
2022/05/25 03:37:34;;;;;;;;;3.00;3.00;;;;;14.20;59.87;101330.25;5058280;28;46196;-63
2022/05/25 03:40:00;;;;;;;;;2.00;2.00;;;;;14.21;59.88;101337.34;5064399;28;45362;-63
2022/05/25 03:42:25;;;;;;;;;3.00;3.00;;;;;14.21;59.93;101338.19;5058704;28;53243;-63
2022/05/25 03:44:50;;;;;;;;;3.67;3.33;;;;;14.19;59.88;101342.75;5055861;28;59372;-63
2022/05/25 03:47:17;;;;;;;;;4.67;4.67;;;;;14.19;60.55;101347.25;5058982;28;45480;-63
2022/05/25 03:49:42;;;;;;;;;4.00;4.00;;;;;14.14;60.17;101352.84;5059912;28;54012;-63
2022/05/25 03:52:08;;;;;;;;;5.00;5.00;;;;;14.15;60.03;101361.75;5058702;28;47373;-62
2022/05/25 03:54:36;;;;;;;;;5.00;5.00;;;;;14.19;60.04;101355.25;5058705;28;45450;-63
2022/05/25 03:57:03;;;;;;;;;6.00;5.00;;;;;14.20;60.12;101360.53;5054961;28;45427;-63
2022/05/25 03:59:28;;;;;;;;;2.00;2.00;;;;;14.18;60.12;101351.75;5060276;28;45508;-62
2022/05/25 04:01:54;;;;;;;;;3.67;3.67;;;;;14.16;60.14;101366.16;5058089;28;45310;-63
2022/05/25 04:04:19;;;;;;;;;6.33;4.00;;;;;14.14;60.09;101355.50;5059561;28;49939;-63
2022/05/25 04:06:44;;;;;;;;;4.00;4.00;;;;;14.12;60.50;101357.44;5056909;28;67601;-62
2022/05/25 04:09:10;;;;;;;;;4.33;3.00;;;;;14.10;60.04;101362.00;5059114;28;45308;-63
2022/05/25 04:11:37;;;;;;;;;5.00;5.00;;;;;14.10;60.28;101359.31;5058350;28;45395;-63
2022/05/25 04:14:03;;;;;;;;;3.00;3.00;;;;;14.10;60.34;101361.13;5058086;28;45289;-63
2022/05/25 04:16:28;;;;;;;;;4.00;4.00;;;;;14.11;60.18;101368.22;5058118;28;46201;-63
2022/05/25 04:18:54;;;;;;;;;5.00;5.00;;;;;14.06;60.49;101361.28;5057842;28;45455;-63
2022/05/25 04:21:19;;;;;;;;;5.00;3.00;;;;;14.05;60.37;101367.63;5059958;28;45416;-63
2022/05/25 04:23:45;;;;;;;;;6.67;5.00;;;;;14.03;60.28;101371.31;5061539;28;45415;-63
2022/05/25 04:26:10;;;;;;;;;5.00;5.00;;;;;14.00;60.59;101369.69;5068520;28;46164;-63
2022/05/25 04:28:37;;;;;;;;;6.67;6.67;;;;;14.00;60.99;101375.03;5065897;28;45226;-63
2022/05/25 04:31:02;;;;;;;;;6.33;6.33;;;;;13.97;60.68;101377.00;5061956;28;45347;-63
2022/05/25 04:33:29;;;;;;;;;9.33;6.67;;;;;13.94;61.34;101378.03;5061618;28;45434;-64
2022/05/25 04:35:55;;;;;;;;;6.00;6.00;;;;;13.92;61.52;101376.38;5065830;28;46241;-64
2022/05/25 04:38:20;;;;;;;;;6.67;5.67;;;;;13.88;61.20;101373.00;5065045;28;45382;-64
2022/05/25 04:40:45;;;;;;;;;6.00;5.00;;;;;13.90;61.22;101387.19;5066840;28;54402;-64
2022/05/25 04:43:16;;;;;;;;;5.67;5.67;;;;;13.95;61.25;101390.47;5059204;28;45462;-64
2022/05/25 04:45:44;;;;;;;;;6.67;6.67;;;;;14.01;61.49;101383.91;5060426;28;45637;-64
2022/05/25 04:48:10;;;;;;;;;10.67;5.00;;;;;14.04;61.21;101389.06;5052346;28;45284;-64
2022/05/25 04:50:41;;;;;;;;;6.67;6.67;;;;;14.06;61.14;101387.19;5065216;28;45454;-64
2022/05/25 04:53:08;;;;;;;;;7.00;5.33;;;;;14.11;61.16;101392.28;5060050;28;45447;-64
2022/05/25 04:58:26;;;;;;;;;3.00;3.00;;;;;14.16;61.18;101408.97;5056251;28;45244;-63
2022/05/25 05:00:52;;;;;;;;;7.00;5.00;;;;;14.17;61.04;101411.53;5046928;28;45492;-64
2022/05/25 05:03:19;;;;;;;;;5.33;4.67;;;;;14.20;61.07;101410.50;5064362;28;45557;-64
2022/05/25 05:05:45;;;;;;;;;6.67;6.67;;;;;14.19;60.93;101408.78;5071091;28;45441;-64
2022/05/25 05:08:11;;;;;;;;;6.33;5.00;;;;;14.18;61.27;101412.41;5068108;28;45323;-63
2022/05/25 05:10:37;;;;;;;;;5.00;5.00;;;;;14.16;60.92;101416.97;5059855;28;45486;-62
2022/05/25 05:13:04;;;;;;;;;6.50;6.50;;;;;14.20;60.66;101421.22;5077374;28;45649;-62
2022/05/25 05:15:38;;;;;;;;;8.00;7.00;;;;;14.21;60.76;101429.16;5064611;28;46972;-62
2022/05/25 05:18:04;;;;;;;;;6.33;6.00;;;;;14.23;60.54;101429.91;5046211;28;45395;-64
2022/05/25 05:20:30;;;;;;;;;6.00;6.00;;;;;14.27;60.72;101433.28;5068268;28;45428;-64
2022/05/25 05:22:55;;;;;;;;;8.00;8.00;;;;;14.26;60.58;101434.22;5050841;28;60208;-63
2022/05/25 05:25:21;;;;;;;;;6.00;6.00;;;;;14.29;60.52;101435.88;5062547;28;50578;-63
2022/05/25 05:27:47;;;;;;;;;8.00;8.00;;;;;14.30;60.62;101427.78;5059201;28;45418;-63
2022/05/25 05:30:15;;;;;;;;;7.67;6.67;;;;;14.33;60.36;101424.91;5058012;28;45307;-64
2022/05/25 05:32:41;;;;;;;;;6.33;6.33;;;;;14.33;60.17;101414.22;5053464;28;45419;-63
2022/05/25 05:35:06;;;;;;;;;6.33;4.67;;;;;14.36;60.28;101413.19;5065522;28;67005;-63
2022/05/25 05:37:37;;;;;;;;;8.33;7.33;;;;;14.33;60.05;101408.88;5070645;28;45408;-63
2022/05/25 05:40:06;;;;;;;;;5.67;5.67;;;;;14.24;60.19;101409.38;5064988;28;45486;-64
2022/05/25 05:42:32;;;;;;;;;6.33;6.33;;;;;14.21;60.30;101412.25;5061160;28;45447;-64
2022/05/25 05:44:58;;;;;;;;;7.00;7.00;;;;;14.19;60.88;101403.41;5059052;28;46347;-64
2022/05/25 05:47:28;;;;;;;;;6.33;6.00;;;;;14.16;60.38;101406.28;5062518;28;45470;-64
2022/05/25 05:49:54;;;;;;;;;4.00;4.00;;;;;14.12;60.14;101408.25;5059043;28;45387;-64
2022/05/25 05:52:20;;;;;;;;;4.00;4.00;;;;;14.12;60.19;101404.69;5060840;28;45339;-64
2022/05/25 05:54:45;;;;;;;;;4.33;4.33;;;;;14.16;60.25;101411.63;5059308;28;45535;-63
2022/05/25 05:57:11;;;;;;;;;6.33;5.00;;;;;14.23;60.09;101413.84;5063068;28;63890;-63
2022/05/25 05:59:38;;;;;;;;;7.00;4.00;;;;;14.33;59.91;101416.91;5058427;28;45532;-63
2022/05/25 06:02:04;;;;;;;;;5.00;4.67;;;;;14.40;59.45;101422.75;5057685;28;45547;-64
2022/05/25 06:04:30;;;;;;;;;6.00;4.00;;;;;14.44;59.47;101423.47;5062412;28;46284;-63
2022/05/25 06:06:55;;;;;;;;;6.00;4.00;;;;;14.51;59.28;101439.09;5044121;28;45309;-62
2022/05/25 06:09:20;;;;;;;;;5.00;3.33;;;;;14.55;58.72;101437.97;5063200;28;61826;-61
2022/05/25 06:11:46;;;;;;;;;3.00;3.00;;;;;14.59;58.46;101441.31;5063957;28;58572;-61
2022/05/25 06:14:11;;;;;;;;;2.00;2.00;;;;;14.63;58.61;101450.06;5063548;28;63254;-63
2022/05/25 06:19:27;;;;;;;;;3.00;3.00;;;;;14.80;58.50;101454.47;5072625;28;45324;-63
2022/05/25 06:22:05;;;;;;;;;6.67;6.67;;;;;14.88;58.25;101450.38;5058955;28;45304;-63
2022/05/25 06:24:35;;;;;;;;;6.33;3.33;;;;;14.96;57.86;101455.28;5057887;28;45467;-63
2022/05/25 06:27:01;;;;;;;;;7.00;3.33;;;;;15.04;57.66;101460.22;5054991;28;45466;-63
2022/05/25 06:29:26;;;;;;;;;4.33;4.00;;;;;15.18;57.73;101462.09;5047605;28;45457;-63
2022/05/25 06:31:51;;;;;;;;;3.00;3.00;;;;;15.36;57.53;101465.50;5062485;28;45592;-59
2022/05/25 06:34:17;;;;;;;;;5.00;2.00;;;;;15.58;56.78;101470.44;5064668;28;46013;-58
2022/05/25 06:36:43;;;;;;;;;1.33;1.33;;;;;15.84;56.55;101474.22;5073074;28;50636;-59
2022/05/25 06:39:08;;;;;;;;;3.00;2.00;;;;;16.12;55.97;101474.34;5058819;28;45517;-58
2022/05/25 06:41:34;;;;;;;;;2.00;2.00;;;;;16.40;55.02;101484.19;5056232;28;45646;-58
2022/05/25 06:44:00;;;;;;;;;3.00;2.33;;;;;16.68;54.68;101483.25;5060379;28;45467;-58
2022/05/25 06:46:26;;;;;;;;;3.00;1.67;;;;;17.03;54.06;101487.31;5051086;28;45606;-53
2022/05/25 06:48:53;;;;;;;;;1.33;1.00;;;;;17.36;53.42;101483.31;5056340;28;45360;-53
2022/05/25 06:51:24;;;;;;;;;1.67;1.67;;;;;17.65;53.66;101481.31;5050313;28;45411;-53
2022/05/25 06:53:50;;;;;;;;;2.00;2.00;;;;;17.92;53.16;101477.66;5049571;28;47331;-54
2022/05/25 06:56:16;;;;;;;;;2.33;2.00;;;;;18.10;52.11;101477.38;5061311;28;46540;-54
2022/05/25 06:58:43;;;;;;;;;3.00;3.00;;;;;18.24;51.17;101485.31;5060922;28;45359;-55
2022/05/25 07:01:09;;;;;;;;;4.00;2.33;;;;;18.40;51.04;101482.38;5056707;28;45505;-55
2022/05/25 07:03:34;;;;;;;;;0.33;0.00;;;;;18.58;50.14;101488.25;5037197;28;45463;-56
2022/05/25 07:06:03;;;;;;;;;1.67;1.00;;;;;18.84;50.52;101494.41;5060875;28;45704;-56
2022/05/25 07:08:28;;;;;;;;;1.33;1.33;;;;;19.05;49.72;101488.44;5034230;28;45454;-55
2022/05/25 07:10:54;;;;;;;;;3.67;3.00;;;;;19.24;47.28;101496.00;5058411;28;45461;-56
2022/05/25 07:13:19;;;;;;;;;1.00;1.00;;;;;19.45;45.42;101498.91;5055176;28;63067;-57
2022/05/25 07:15:45;;;;;;;;;3.00;1.00;;;;;19.66;47.70;101509.84;5046626;28;45597;-57
2022/05/25 07:18:11;;;;;;;;;2.00;0.67;;;;;19.91;46.09;101505.28;5068703;28;45646;-58
2022/05/25 07:20:37;;;;;;;;;2.00;2.00;;;;;20.17;43.91;101505.06;5060499;28;45254;-58
2022/05/25 07:23:02;;;;;;;;;0.00;0.00;;;;;20.38;44.42;101512.44;5061996;28;65844;-58
2022/05/25 07:25:28;;;;;;;;;5.33;2.00;;;;;20.66;44.38;101511.03;5061669;28;45306;-58
2022/05/25 07:27:53;;;;;;;;;1.00;0.33;;;;;21.14;44.67;101531.47;5060885;28;45625;-58
2022/05/25 07:30:19;;;;;;;;;0.33;0.33;;;;;21.55;43.66;101524.44;5060524;28;60754;-58
2022/05/25 07:32:46;;;;;;;;;1.00;0.00;;;;;21.73;40.85;101519.31;5059158;28;62175;-58
2022/05/25 07:35:13;;;;;;;;;0.25;0.25;;;;;22.03;40.94;101523.03;5069785;28;45355;-55
2022/05/25 07:37:41;;;;;;;;;1.25;1.00;;;;;22.54;41.02;101521.28;5050769;28;45415;-57
2022/05/25 07:40:09;;;;;;;;;0.25;0.25;;;;;22.92;36.95;101526.97;5069425;28;45500;-59
2022/05/25 07:42:35;;;;;;;;;0.00;0.00;;;;;23.17;36.07;101524.72;5062248;28;46117;-57
2022/05/25 07:45:03;;;;;;;;;0.00;0.00;;;;;23.35;34.33;101527.56;5055157;28;45415;-57
2022/05/25 07:47:31;;;;;;;;;0.25;0.25;;;;;23.57;37.91;101527.28;5056515;28;45456;-59
2022/05/25 07:49:57;;;;;;;;;0.25;0.00;;;;;23.90;34.41;101525.09;5054983;28;45572;-59
2022/05/25 07:52:24;;;;;;;;;0.00;0.00;;;;;24.13;36.41;101530.19;5041407;28;45456;-57
2022/05/25 07:54:49;;;;;;;;;0.00;0.00;;;;;24.51;34.62;101533.75;5068155;28;45383;-57
2022/05/25 07:57:15;;;;;;;;;0.00;0.00;;;;;24.89;34.98;101541.88;5058311;27;45387;-57
2022/05/25 07:59:41;;;;;;;;;1.50;0.00;;;;;25.21;34.94;101526.88;5063123;28;54283;-57
2022/05/25 08:07:46;;;;;;;;;0.25;0.25;;;;;26.34;34.17;101542.59;5064451;28;45492;-56
2022/05/25 08:10:16;;;;;;;;;0.00;0.00;;;;;26.81;35.25;101542.13;5065861;28;45359;-59
2022/05/25 08:12:43;;;;;;;;;0.00;0.00;;;;;27.13;28.02;101532.31;5034050;28;45701;-56
2022/05/25 08:15:10;;;;;;;;;0.00;0.00;;;;;27.47;27.36;101542.25;5055586;28;45681;-56
2022/05/25 08:17:36;;;;;;;;;0.00;0.00;;;;;27.41;31.18;101540.19;5067256;28;45459;-55
2022/05/25 08:20:02;;;;;;;;;0.00;0.00;;;;;27.33;27.53;101543.75;5053378;28;45398;-54
2022/05/25 08:22:28;;;;;;;;;0.00;0.00;;;;;27.45;29.74;101535.25;5064735;28;47145;-55
2022/05/25 08:24:53;;;;;;;;;0.00;0.00;;;;;27.68;26.90;101538.16;5041536;28;52211;-55
2022/05/25 08:27:19;;;;;;;;;0.00;0.00;;;;;27.87;27.27;101531.44;5048408;28;45404;-55
2022/05/25 08:29:44;;;;;;;;;0.25;0.00;;;;;28.25;29.26;101541.81;5061138;28;45340;-56
2022/05/25 08:32:10;;;;;;;;;0.00;0.00;;;;;28.66;29.01;101549.91;5061427;28;46283;-55
2022/05/25 08:34:36;;;;;;;;;0.00;0.00;;;;;28.88;26.40;101543.59;5061438;28;45529;-56
2022/05/25 08:37:02;;;;;;;;;0.00;0.00;;;;;29.16;23.66;101551.28;5079026;27;45383;-54
2022/05/25 08:39:27;;;;;;;;;0.00;0.00;;;;;29.31;26.67;101550.56;5065647;28;45776;-56
2022/05/25 08:41:56;;;;;;;;;0.00;0.00;;;;;29.68;26.39;101554.34;5059177;28;45473;-54
2022/05/25 08:44:23;;;;;;;;;0.00;0.00;;;;;30.09;27.16;101547.63;5054384;28;45472;-56
2022/05/25 08:46:54;;;;;;;;;0.00;0.00;;;;;30.47;24.72;101539.34;5065969;27;45741;-55
2022/05/25 08:49:20;;;;;;;;;0.00;0.00;;;;;30.48;22.76;101541.91;5055479;28;45500;-56
2022/05/25 08:51:49;;;;;;;;;0.00;0.00;;;;;30.28;23.49;101549.81;5066652;28;46122;-57
2022/05/25 08:54:16;;;;;;;;;1.00;0.00;;;;;30.05;21.48;101549.94;5047426;28;45358;-58
2022/05/25 08:56:53;;;;;;;;;0.00;0.00;;;;;30.12;22.72;101552.75;5067358;28;45376;-59
2022/05/25 08:59:49;;;;;;;;;0.00;0.00;;;;;30.32;23.94;101555.78;5052249;28;46316;-57
2022/05/25 09:02:35;;;;;;;;;0.00;0.00;;;;;30.47;23.52;101564.06;5049255;28;45595;-59
2022/05/25 09:05:25;;;;;;;;;0.00;0.00;;;;;30.91;24.06;101565.00;5067819;28;45495;-58
2022/05/25 09:07:50;;;;;;;;;0.00;0.00;;;;;31.11;19.93;101562.53;5036971;28;45891;-55
2022/05/25 09:10:17;;;;;;;;;0.50;0.00;;;;;31.08;20.16;101561.00;5063935;28;45308;-56
2022/05/25 09:12:43;;;;;;;;;0.00;0.00;;;;;31.22;23.35;101567.47;5051359;28;46606;-58
2022/05/25 09:15:18;;;;;;;;;0.00;0.00;;;;;31.36;22.53;101565.72;5055927;28;45639;-57
2022/05/25 09:18:03;;;;;;;;;0.00;0.00;;;;;31.48;22.77;101561.38;5049861;28;45602;-57
2022/05/25 09:20:35;;;;;;;;;0.00;0.00;;;;;31.49;21.35;101552.09;5063688;28;45554;-57
2022/05/25 09:23:01;;;;;;;;;0.00;0.00;;;;;31.41;22.09;101552.25;5063117;28;45521;-58
2022/05/25 09:25:26;;;;;;;;;0.00;0.00;;;;;31.52;21.75;101550.84;5069991;28;45240;-59
2022/05/25 09:28:15;;;;;;;;;0.00;0.00;;;;;31.58;20.74;101554.72;5072962;28;45275;-56
2022/05/25 09:30:42;;;;;;;;;0.00;0.00;;;;;31.41;20.93;101560.50;5053384;28;45480;-57
2022/05/25 09:33:14;;;;;;;;;0.00;0.00;;;;;31.21;19.22;101559.44;5033204;28;47984;-57
2022/05/25 09:35:54;;;;;;;;;0.00;0.00;;;;;30.83;20.65;101558.59;5065351;28;45615;-57
2022/05/25 09:38:31;;;;;;;;;0.00;0.00;;;;;30.54;21.12;101554.00;5053278;28;45335;-59
2022/05/25 09:41:04;;;;;;;;;0.00;0.00;;;;;30.65;22.30;101553.50;5037871;28;45245;-59
2022/05/25 09:43:30;;;;;;;;;0.00;0.00;;;;;30.80;21.05;101553.47;5051926;28;46450;-59
2022/05/25 09:45:59;;;;;;;;;0.00;0.00;;;;;31.01;21.40;101554.56;5056301;28;45328;-57
2022/05/25 09:48:25;;;;;;;;;0.00;0.00;;;;;31.36;22.80;101560.22;5071710;27;45514;-58
2022/05/25 09:51:35;;;;;;;;;0.00;0.00;;;;;31.61;22.10;101574.44;5071032;28;45549;-57
2022/05/25 09:54:03;;;;;;;;;0.00;0.00;;;;;31.80;21.16;101575.66;5035542;28;45686;-57
2022/05/25 09:56:31;;;;;;;;;0.00;0.00;;;;;31.81;20.17;101568.25;5052062;28;45938;-59
2022/05/25 09:59:02;;;;;;;;;0.00;0.00;;;;;31.69;19.58;101573.44;5057993;28;45517;-56
2022/05/25 10:01:33;;;;;;;;;0.00;0.00;;;;;31.61;20.50;101565.31;5051331;28;45532;-57
2022/05/25 10:03:59;;;;;;;;;0.75;0.00;;;;;31.51;20.64;101562.88;5046641;28;45415;-60
2022/05/25 10:06:31;;;;;;;;;1.00;0.00;;;;;31.70;22.02;101566.91;5042531;28;45437;-59
2022/05/25 10:09:25;;;;;;;;;0.00;0.00;;;;;32.05;22.03;101555.13;5059314;28;45346;-59
2022/05/25 10:11:54;;;;;;;;;0.00;0.00;;;;;32.16;21.29;101569.16;5056437;28;45448;-60
2022/05/25 10:14:28;;;;;;;;;0.00;0.00;;;;;32.26;21.66;101568.81;5042901;28;46167;-57
2022/05/25 10:16:56;;;;;;;;;0.00;0.00;;;;;32.40;21.29;101566.97;5057591;28;45360;-60
2022/05/25 10:19:22;;;;;;;;;0.00;0.00;;;;;32.52;19.83;101580.19;5063606;28;45600;-58
2022/05/25 10:21:53;;;;;;;;;1.25;0.00;;;;;32.27;19.76;101569.66;5072030;27;45616;-56
2022/05/25 10:24:28;;;;;;;;;0.00;0.00;;;;;32.14;21.11;101564.91;5066209;28;45791;-58
2022/05/25 10:27:02;;;;;;;;;0.00;0.00;;;;;32.19;20.73;101562.44;5064681;28;45545;-58
2022/05/25 10:38:27;;;;;;;;;1.00;0.00;;;;;31.65;21.23;101561.16;5051855;28;45910;-59
2022/05/25 10:40:57;;;;;;;;;0.00;0.00;;;;;31.88;19.01;101565.56;5047116;28;45580;-56
2022/05/25 10:43:28;;;;;;;;;0.00;0.00;;;;;31.94;20.10;101557.38;5065256;28;46724;-59
2022/05/25 10:45:56;;;;;;;;;1.00;0.00;;;;;32.13;19.76;101554.94;5065844;28;46365;-56
2022/05/25 10:48:41;;;;;;;;;0.00;0.00;;;;;32.35;19.16;101552.97;5066648;28;45623;-59
2022/05/25 10:51:23;;;;;;;;;0.00;0.00;;;;;32.27;18.39;101554.00;5048229;28;45513;-56
2022/05/25 10:57:03;;;;;;;;;2.00;0.00;;;;;32.24;19.28;101557.16;5050144;28;45946;-60
2022/05/25 10:59:40;;;;;;;;;0.00;0.00;;;;;32.08;19.80;101566.53;5047824;28;45501;-57
2022/05/25 11:02:24;;;;;;;;;0.00;0.00;;;;;31.60;20.09;101569.09;5041442;28;45361;-57
2022/05/25 11:04:58;;;;;;;;;0.00;0.00;;;;;31.48;19.94;101571.53;5058857;28;45390;-60
2022/05/25 11:07:29;;;;;;;;;0.00;0.00;;;;;31.55;21.03;101572.47;5058046;28;45364;-58
2022/05/25 11:09:57;;;;;;;;;2.25;0.00;;;;;31.42;20.54;101570.44;5040856;28;45522;-56
2022/05/25 11:12:29;;;;;;;;;0.00;0.00;;;;;31.23;20.23;101568.34;5040229;28;45272;-58
2022/05/25 11:15:03;;;;;;;;;4.25;4.25;;;;;31.21;20.65;101568.56;5057384;28;45363;-58
2022/05/25 11:17:40;;;;;;;;;0.00;0.00;;;;;31.05;20.06;101564.13;5040378;28;46425;-58
2022/05/25 11:20:33;;;;;;;;;0.00;0.00;;;;;30.85;21.00;101570.22;5058625;28;45505;-55
2022/05/25 11:23:16;;;;;;;;;0.25;0.00;;;;;30.22;20.99;101560.69;5057423;28;45221;-58
2022/05/25 11:26:00;;;;;;;;;0.00;0.00;;;;;29.48;21.81;101560.34;5053997;28;45640;-57
2022/05/25 11:28:39;;;;;;;;;0.00;0.00;;;;;29.14;21.51;101563.50;5048414;28;47208;-56
2022/05/25 11:31:39;;;;;;;;;0.00;0.00;;;;;28.86;22.57;101566.72;5050928;28;45358;-57
2022/05/25 11:34:23;;;;;;;;;0.00;0.00;;;;;28.66;22.70;101572.63;5052501;28;45354;-56
2022/05/25 11:36:57;;;;;;;;;0.00;0.00;;;;;28.51;23.02;101579.84;5054089;28;45487;-57
2022/05/25 11:39:40;;;;;;;;;0.00;0.00;;;;;28.32;22.92;101564.72;5061188;28;45431;-58
2022/05/25 11:42:46;;;;;;;;;0.50;0.50;;;;;27.97;22.44;101564.06;5058023;28;45309;-58
2022/05/25 11:45:33;;;;;;;;;0.00;0.00;;;;;27.88;23.22;101564.06;5058397;28;45214;-57
2022/05/25 11:48:05;;;;;;;;;0.00;0.00;;;;;27.81;23.88;101562.19;5067199;28;45609;-59
2022/05/25 11:50:44;;;;;;;;;0.00;0.00;;;;;27.78;23.73;101562.56;5040566;28;45318;-58
2022/05/25 11:53:18;;;;;;;;;0.00;0.00;;;;;27.60;23.89;101562.72;5027760;28;45566;-57
2022/05/25 11:55:49;;;;;;;;;0.00;0.00;;;;;27.49;24.02;101566.66;5041090;28;45530;-57
2022/05/25 11:58:24;;;;;;;;;0.00;0.00;;;;;27.42;24.36;101554.69;5055260;28;45242;-59
2022/05/25 12:00:53;;;;;;;;;0.00;0.00;;;;;27.33;24.75;101568.31;5028700;28;46305;-57
2022/05/25 12:03:37;;;;;;;;;0.00;0.00;;;;;27.05;24.68;101562.28;5039429;28;45432;-57